createdAt,value
2022-10-14T00:00:42.540Z,42.70
2022-10-14T00:03:09.269Z,35.70
2022-10-14T00:05:40.407Z,39.90
2022-10-14T00:08:07.048Z,40.95
2022-10-14T00:10:37.553Z,40.33
2022-10-14T00:13:04.216Z,44.38
2022-10-14T00:15:30.853Z,44.50
2022-10-14T00:17:57.438Z,44.45
2022-10-14T00:20:24.184Z,36.65
2022-10-14T00:22:50.861Z,37.97
2022-10-14T00:25:17.585Z,39.78
2022-10-14T00:27:44.232Z,36.28
2022-10-14T00:30:11.165Z,37.30
2022-10-14T00:32:37.734Z,38.92
2022-10-14T00:35:04.873Z,35.85
2022-10-14T00:37:31.457Z,36.13
2022-10-14T00:39:58.033Z,35.35
2022-10-14T00:42:24.954Z,35.15
2022-10-14T00:44:51.519Z,43.10
2022-10-14T00:47:18.324Z,36.97
2022-10-14T00:49:45.133Z,33.42
2022-10-14T00:52:16.582Z,34.28
2022-10-14T00:54:55.434Z,38.30
2022-10-14T00:57:23.443Z,33.03
2022-10-14T00:59:51.444Z,35.22
2022-10-14T01:02:18.209Z,35.42
2022-10-14T01:04:45.407Z,31.88
2022-10-14T01:07:46.344Z,34.42
2022-10-14T01:10:43.808Z,33.60
2022-10-14T01:13:24.198Z,34.90
2022-10-14T01:16:09.495Z,36.50
2022-10-14T01:18:58.041Z,33.70
2022-10-14T01:21:24.583Z,33.45
2022-10-14T01:24:05.518Z,30.05
2022-10-14T01:27:02.895Z,32.53
2022-10-14T01:30:03.617Z,30.77
2022-10-14T01:32:34.660Z,36.25
2022-10-14T01:35:28.654Z,36.28
2022-10-14T01:38:10.557Z,41.13
2022-10-14T01:40:52.464Z,32.97
2022-10-14T01:43:21.864Z,30.50
2022-10-14T01:45:50.388Z,36.03
2022-10-14T01:48:21.609Z,33.58
2022-10-14T01:50:50.782Z,29.95
2022-10-14T01:53:32.657Z,39.05
2022-10-14T01:56:00.474Z,30.23
2022-10-14T01:58:31.653Z,36.80
2022-10-14T02:00:58.409Z,35.85
2022-10-14T02:03:25.066Z,32.85
2022-10-14T02:06:00.762Z,30.02
2022-10-14T02:08:57.900Z,35.97
2022-10-14T02:11:24.848Z,34.65
2022-10-14T02:14:13.460Z,37.80
2022-10-14T02:16:49.555Z,32.35
2022-10-14T02:19:16.144Z,34.72
2022-10-14T02:21:59.628Z,35.63
2022-10-14T02:24:35.045Z,35.28
2022-10-14T02:27:07.070Z,31.80
2022-10-14T02:29:35.820Z,34.15
2022-10-14T02:32:06.428Z,33.65
2022-10-14T02:34:34.112Z,34.40
2022-10-14T02:37:01.502Z,37.90
2022-10-14T02:39:36.533Z,34.47
2022-10-14T02:42:03.746Z,34.92
2022-10-14T02:44:30.384Z,35.05
2022-10-14T02:46:57.111Z,35.28
2022-10-14T02:49:23.900Z,35.20
2022-10-14T02:51:50.444Z,42.42
2022-10-14T02:54:17.076Z,32.63
2022-10-14T02:56:43.682Z,40.58
2022-10-14T02:59:10.274Z,33.80
2022-10-14T03:01:37.937Z,38.58
2022-10-14T03:04:04.850Z,36.33
2022-10-14T03:06:31.453Z,35.28
2022-10-14T03:08:58.101Z,34.65
2022-10-14T03:11:24.776Z,35.50
2022-10-14T03:13:51.389Z,28.48
2022-10-14T03:16:18.014Z,32.20
2022-10-14T03:18:44.654Z,29.77
2022-10-14T03:21:11.292Z,28.40
2022-10-14T03:23:38.024Z,33.40
2022-10-14T03:26:04.682Z,32.22
2022-10-14T03:28:31.346Z,32.53
2022-10-14T03:30:58.008Z,32.25
2022-10-14T03:33:26.322Z,33.58
2022-10-14T03:35:53.420Z,29.73
2022-10-14T03:38:20.340Z,29.58
2022-10-14T03:40:46.968Z,28.83
2022-10-14T03:43:13.677Z,31.40
2022-10-14T03:45:40.483Z,28.13
2022-10-14T03:48:07.085Z,29.08
2022-10-14T03:50:33.772Z,28.20
2022-10-14T03:53:00.385Z,27.30
2022-10-14T03:55:27.270Z,25.52
2022-10-14T03:57:53.958Z,27.73
2022-10-14T04:00:20.757Z,30.30
2022-10-14T04:02:47.452Z,27.77
2022-10-14T04:05:14.595Z,36.63
2022-10-14T04:07:41.248Z,29.25
2022-10-14T04:10:08.469Z,33.10
2022-10-14T04:12:35.046Z,28.80
2022-10-14T04:15:01.685Z,34.17
2022-10-14T04:17:28.319Z,29.35
2022-10-14T04:19:54.931Z,28.67
2022-10-14T04:22:23.197Z,31.80
2022-10-14T04:24:50.541Z,29.25
2022-10-14T04:27:18.125Z,31.52
2022-10-14T04:29:44.897Z,37.25
2022-10-14T04:32:12.180Z,31.52
2022-10-14T04:34:38.842Z,27.30
2022-10-14T04:37:05.423Z,29.05
2022-10-14T04:39:32.043Z,34.05
2022-10-14T04:41:58.651Z,28.23
2022-10-14T04:44:25.269Z,31.00
2022-10-14T04:46:51.913Z,29.48
2022-10-14T04:49:18.601Z,30.77
2022-10-14T04:51:45.244Z,28.25
2022-10-14T04:54:11.946Z,35.38
2022-10-14T04:56:38.756Z,31.10
2022-10-14T04:59:06.059Z,25.50
2022-10-14T05:01:34.159Z,30.45
2022-10-14T05:04:01.067Z,36.75
2022-10-14T05:06:28.106Z,30.10
2022-10-14T05:08:54.866Z,33.55
2022-10-14T05:11:21.617Z,26.05
2022-10-14T05:13:48.698Z,30.40
2022-10-14T05:16:15.536Z,28.75
2022-10-14T05:18:42.181Z,32.38
2022-10-14T05:21:08.924Z,27.00
2022-10-14T05:23:35.571Z,31.33
2022-10-14T05:26:02.214Z,33.35
2022-10-14T05:28:28.963Z,34.65
2022-10-14T05:30:55.852Z,33.08
2022-10-14T05:33:22.481Z,28.05
2022-10-14T05:36:04.390Z,30.38
2022-10-14T05:38:34.329Z,31.02
2022-10-14T05:41:02.017Z,31.42
2022-10-14T05:43:32.487Z,28.23
2022-10-14T05:46:00.462Z,31.65
2022-10-14T05:48:27.438Z,28.52
2022-10-14T05:50:54.172Z,26.95
2022-10-14T05:53:20.929Z,34.45
2022-10-14T05:55:47.590Z,26.38
2022-10-14T05:58:14.394Z,34.40
2022-10-14T06:00:41.027Z,32.90
2022-10-14T06:03:07.687Z,32.20
2022-10-14T06:05:37.328Z,29.63
2022-10-14T06:08:05.123Z,30.95
2022-10-14T06:10:31.808Z,32.58
2022-10-14T06:12:58.435Z,36.53
2022-10-14T06:15:25.085Z,33.33
2022-10-14T06:17:51.669Z,40.65
2022-10-14T06:20:18.273Z,39.00
2022-10-14T06:22:45.671Z,33.67
2022-10-14T06:25:12.321Z,30.02
2022-10-14T06:27:38.988Z,37.67
2022-10-14T06:30:06.004Z,37.45
2022-10-14T06:32:32.697Z,35.92
2022-10-14T06:34:59.286Z,37.47
2022-10-14T06:37:26.187Z,33.55
2022-10-14T06:39:52.832Z,34.15
2022-10-14T06:42:19.457Z,40.35
2022-10-14T06:44:46.137Z,32.58
2022-10-14T06:47:12.710Z,44.58
2022-10-14T06:49:39.548Z,36.40
2022-10-14T06:52:06.165Z,47.25
2022-10-14T06:54:38.205Z,39.92
2022-10-14T06:57:06.343Z,36.78
2022-10-14T06:59:32.997Z,47.08
2022-10-14T07:01:59.688Z,42.35
2022-10-14T07:04:26.645Z,39.03
2022-10-14T07:06:53.394Z,41.40
2022-10-14T07:09:20.092Z,31.52
2022-10-14T07:11:46.670Z,34.05
2022-10-14T07:14:13.325Z,34.95
2022-10-14T07:16:40.022Z,40.65
2022-10-14T07:19:06.653Z,41.67
2022-10-14T07:21:33.320Z,44.25
2022-10-14T07:23:59.966Z,40.97
2022-10-14T07:26:26.583Z,47.60
2022-10-14T07:28:53.251Z,40.15
2022-10-14T07:31:19.936Z,40.40
2022-10-14T07:33:46.574Z,44.83
2022-10-14T07:36:18.439Z,41.25
2022-10-14T07:38:48.454Z,38.35
2022-10-14T07:41:21.120Z,39.65
2022-10-14T07:43:50.228Z,39.20
2022-10-14T07:46:28.604Z,45.35
2022-10-14T07:49:00.873Z,44.88
2022-10-14T07:53:55.693Z,48.30
2022-10-14T07:56:23.040Z,44.38
2022-10-14T07:58:49.827Z,38.35
2022-10-14T08:01:18.849Z,40.13
2022-10-14T08:03:47.496Z,42.25
2022-10-14T08:06:15.168Z,40.55
2022-10-14T08:08:42.007Z,43.53
2022-10-14T08:11:11.979Z,42.80
2022-10-14T08:13:43.281Z,48.63
2022-10-14T08:16:18.126Z,38.38
2022-10-14T08:21:12.594Z,34.50
2022-10-14T08:23:39.346Z,32.72
2022-10-14T08:26:35.159Z,37.17
2022-10-14T08:29:05.998Z,34.58
2022-10-14T08:31:33.677Z,32.30
2022-10-14T08:34:00.432Z,30.88
2022-10-14T08:36:27.230Z,38.55
2022-10-14T08:38:54.422Z,32.78
2022-10-14T08:41:36.069Z,39.22
2022-10-14T08:44:02.955Z,34.00
2022-10-14T09:15:36.313Z,35.75
2022-10-14T09:18:19.275Z,39.33
2022-10-14T09:20:46.817Z,38.33
2022-10-14T09:23:13.359Z,40.00
2022-10-14T09:25:47.457Z,29.52
2022-10-14T09:28:14.318Z,29.38
2022-10-14T09:30:41.030Z,29.70
2022-10-14T09:33:17.548Z,31.40
2022-10-14T09:35:44.496Z,31.73
2022-10-14T09:38:12.780Z,30.55
2022-10-14T09:40:49.531Z,31.40
2022-10-14T09:43:21.495Z,31.27
2022-10-14T09:48:39.443Z,30.73
2022-10-14T09:51:20.036Z,30.80
2022-10-14T09:53:52.016Z,35.85
2022-10-14T09:58:55.428Z,34.15
2022-10-14T10:01:23.180Z,37.08
2022-10-14T10:03:52.530Z,34.25
2022-10-14T10:06:22.751Z,35.15
2022-10-14T10:08:55.538Z,32.70
2022-10-14T10:11:37.432Z,32.40
2022-10-14T10:14:22.493Z,35.35
2022-10-14T10:19:34.964Z,33.72
2022-10-14T10:22:31.583Z,37.40
2022-10-14T10:25:01.207Z,34.35
2022-10-14T10:27:36.640Z,30.60
2022-10-14T10:30:18.800Z,31.60
2022-10-14T10:35:26.943Z,39.13
2022-10-14T10:37:56.914Z,36.25
2022-10-14T10:40:38.656Z,29.40
2022-10-14T10:43:28.117Z,28.98
2022-10-14T10:46:14.833Z,30.27
2022-10-14T10:49:03.524Z,27.38
2022-10-14T10:51:57.935Z,28.90
2022-10-14T10:54:40.574Z,33.08
2022-10-14T10:57:30.374Z,28.50
2022-10-14T11:00:04.014Z,27.15
2022-10-14T11:02:46.043Z,23.65
2022-10-14T11:05:23.402Z,30.42
2022-10-14T11:08:14.521Z,22.02
2022-10-14T11:11:37.619Z,33.08
2022-10-14T11:14:07.367Z,26.05
2022-10-14T11:16:56.272Z,23.30
2022-10-14T11:20:00.981Z,26.23
2022-10-14T11:22:58.636Z,25.77
2022-10-14T11:25:38.257Z,27.17
2022-10-14T11:28:36.201Z,27.08
2022-10-14T11:31:24.295Z,26.63
2022-10-14T11:34:21.843Z,23.65
2022-10-14T11:36:57.081Z,21.95
2022-10-14T11:39:40.151Z,23.75
2022-10-14T11:42:13.783Z,24.42
2022-10-14T11:44:44.391Z,23.10
2022-10-14T11:47:26.368Z,20.92
2022-10-14T11:49:56.679Z,19.48
2022-10-14T11:52:30.143Z,18.27
2022-10-14T11:55:14.744Z,19.35
2022-10-14T11:57:53.630Z,19.63
2022-10-14T12:01:00.735Z,16.77
2022-10-14T12:03:58.732Z,17.80
2022-10-14T12:06:34.378Z,17.50
2022-10-14T12:09:17.017Z,15.90
2022-10-14T12:11:49.328Z,16.20
2022-10-14T12:14:36.749Z,17.63
2022-10-14T12:17:33.663Z,18.90
2022-10-14T12:20:13.618Z,18.63
2022-10-14T12:22:40.646Z,19.15
2022-10-14T12:25:17.394Z,16.80
2022-10-14T12:27:44.487Z,19.50
2022-10-14T12:30:34.712Z,15.20
2022-10-14T12:33:04.518Z,22.73
2022-10-14T12:35:59.140Z,16.60
2022-10-14T12:38:29.002Z,18.67
2022-10-14T12:41:34.372Z,16.40
2022-10-14T12:44:04.074Z,13.85
2022-10-14T12:46:31.609Z,21.17
2022-10-14T12:48:59.785Z,13.75
2022-10-14T12:51:27.421Z,16.77
2022-10-14T12:54:07.593Z,14.82
2022-10-14T12:56:39.728Z,23.50
2022-10-14T12:59:09.383Z,17.20
2022-10-14T13:01:36.850Z,16.15
2022-10-14T13:04:20.116Z,12.60
2022-10-14T13:10:46.214Z,14.45
2022-10-14T13:13:38.573Z,12.90
2022-10-14T13:16:10.295Z,11.75
2022-10-14T13:18:39.850Z,10.05
2022-10-14T13:21:08.208Z,16.00
2022-10-14T13:23:43.321Z,13.82
2022-10-14T13:26:13.366Z,10.90
2022-10-14T13:29:15.192Z,9.63
2022-10-14T13:32:04.955Z,15.10
2022-10-14T13:34:43.871Z,16.38
2022-10-14T13:37:45.898Z,14.25
2022-10-14T13:40:34.565Z,17.90
2022-10-14T13:43:13.521Z,12.85
2022-10-14T13:45:43.993Z,10.88
2022-10-14T13:48:17.812Z,13.57
2022-10-14T13:50:46.999Z,12.05
2022-10-14T13:53:18.283Z,12.85
2022-10-14T13:55:54.738Z,16.20
2022-10-14T13:58:23.774Z,20.13
2022-10-14T14:00:59.511Z,16.00
2022-10-14T14:03:29.465Z,11.75
2022-10-14T14:05:58.299Z,11.93
2022-10-14T14:08:41.486Z,11.82
2022-10-14T14:11:18.366Z,10.18
2022-10-14T14:14:03.716Z,10.85
2022-10-14T14:16:39.529Z,11.60
2022-10-14T14:19:09.330Z,11.18
2022-10-14T14:21:37.561Z,11.85
2022-10-14T14:24:15.400Z,11.73
2022-10-14T14:26:41.979Z,9.57
2022-10-14T14:29:18.367Z,12.77
2022-10-14T14:34:36.671Z,14.30
2022-10-14T14:37:34.393Z,12.77
2022-10-14T14:40:14.936Z,14.25
2022-10-14T14:42:42.569Z,12.05
2022-10-14T14:45:25.602Z,13.30
2022-10-14T14:47:57.863Z,15.35
2022-10-14T14:50:31.152Z,9.23
2022-10-14T14:53:07.248Z,7.82
2022-10-14T14:55:42.752Z,10.98
2022-10-14T14:58:38.268Z,8.02
2022-10-14T15:01:07.079Z,7.78
2022-10-14T15:04:12.017Z,12.63
2022-10-14T15:06:38.894Z,10.05
2022-10-14T15:09:15.539Z,10.27
2022-10-14T15:11:51.480Z,8.85
2022-10-14T15:14:43.048Z,9.75
2022-10-14T15:17:34.348Z,9.60
2022-10-14T15:20:03.799Z,9.43
2022-10-14T15:22:34.642Z,10.50
2022-10-14T15:25:08.775Z,7.70
2022-10-14T15:27:38.346Z,8.57
2022-10-14T15:30:27.428Z,9.73
2022-10-14T15:33:14.857Z,6.40
2022-10-14T15:35:42.865Z,8.00
2022-10-14T15:38:19.352Z,9.65
2022-10-14T15:40:47.524Z,8.65
2022-10-14T15:43:17.771Z,11.52
2022-10-14T15:45:47.391Z,10.70
2022-10-14T15:48:20.014Z,10.45
2022-10-14T15:50:50.321Z,12.73
2022-10-14T15:53:17.755Z,13.18
2022-10-14T15:55:44.375Z,9.75
2022-10-14T15:58:11.048Z,18.13
2022-10-14T16:00:37.937Z,9.57
2022-10-14T16:03:05.256Z,10.82
2022-10-14T16:05:32.249Z,14.95
2022-10-14T16:07:58.930Z,10.52
2022-10-14T16:10:28.254Z,12.75
2022-10-14T16:12:57.543Z,15.52
2022-10-14T16:15:24.450Z,12.57
2022-10-14T16:17:52.993Z,11.30
2022-10-14T16:20:20.364Z,19.13
2022-10-14T16:22:47.180Z,10.98
2022-10-14T16:25:53.685Z,11.88
2022-10-14T16:28:21.719Z,14.13
2022-10-14T16:30:50.184Z,14.30
2022-10-14T16:33:24.249Z,15.73
2022-10-14T16:35:54.001Z,18.90
2022-10-14T16:38:21.233Z,11.45
2022-10-14T16:40:59.451Z,13.05
2022-10-14T16:43:27.331Z,17.73
2022-10-14T16:45:58.191Z,16.20
2022-10-14T16:48:42.023Z,14.10
2022-10-14T16:51:17.728Z,12.82
2022-10-14T16:53:51.482Z,13.25
2022-10-14T16:56:38.631Z,13.50
2022-10-14T16:59:07.707Z,11.07
2022-10-14T17:01:40.261Z,11.13
2022-10-14T17:04:07.960Z,9.02
2022-10-14T17:06:35.360Z,12.20
2022-10-14T17:09:02.761Z,13.80
2022-10-14T17:11:29.921Z,14.57
2022-10-14T17:13:58.346Z,11.30
2022-10-14T17:16:28.612Z,17.65
2022-10-14T17:18:56.893Z,21.63
2022-10-14T17:21:24.749Z,18.85
2022-10-14T17:23:52.334Z,21.38
2022-10-14T17:26:25.692Z,17.92
2022-10-14T17:28:53.739Z,20.73
2022-10-14T17:31:22.658Z,19.58
2022-10-14T17:33:50.037Z,17.60
2022-10-14T17:36:34.909Z,20.52
2022-10-14T17:39:02.422Z,20.70
2022-10-14T17:41:30.070Z,16.40
2022-10-14T17:43:58.793Z,19.25
2022-10-14T17:46:35.377Z,24.77
2022-10-14T17:49:05.009Z,19.73
2022-10-14T17:51:32.434Z,29.88
2022-10-14T17:54:04.018Z,15.95
2022-10-14T17:56:34.793Z,19.25
2022-10-14T17:59:07.229Z,23.65
2022-10-14T18:02:01.084Z,16.83
2022-10-14T18:06:47.925Z,15.32
2022-10-14T18:09:14.624Z,17.52
2022-10-14T18:14:30.227Z,19.63
2022-10-14T18:16:59.387Z,20.10
2022-10-14T18:19:27.191Z,15.40
2022-10-14T18:22:03.600Z,15.27
2022-10-14T18:24:30.353Z,15.57
2022-10-14T18:26:57.053Z,13.70
2022-10-14T18:29:24.377Z,17.00
2022-10-14T18:32:05.886Z,15.25
2022-10-14T18:34:42.713Z,15.80
2022-10-14T18:37:21.066Z,11.85
2022-10-14T18:39:51.029Z,17.13
2022-10-14T18:42:24.149Z,15.50
2022-10-14T18:44:51.602Z,12.32
2022-10-14T18:47:18.316Z,15.32
2022-10-14T18:49:45.853Z,17.13
2022-10-14T18:52:12.507Z,14.57
2022-10-14T18:54:39.292Z,16.50
2022-10-14T18:57:06.133Z,13.20
2022-10-14T18:59:35.835Z,13.05
2022-10-14T19:02:02.736Z,13.98
2022-10-14T19:04:29.608Z,14.50
2022-10-14T19:06:56.514Z,13.10
2022-10-14T19:09:28.963Z,12.90
2022-10-14T19:11:57.455Z,13.65
2022-10-14T19:14:24.102Z,13.85
2022-10-14T19:16:51.262Z,13.82
2022-10-14T19:19:20.096Z,13.93
2022-10-14T19:21:50.097Z,14.23
2022-10-14T19:24:17.324Z,17.92
2022-10-14T19:26:45.928Z,15.52
2022-10-14T19:29:14.566Z,16.17
2022-10-14T19:31:42.341Z,18.40
2022-10-14T19:34:12.511Z,14.68
2022-10-14T19:36:40.430Z,19.42
2022-10-14T19:39:08.836Z,22.73
2022-10-14T19:41:43.358Z,16.73
2022-10-14T19:44:11.395Z,15.73
2022-10-14T19:46:38.376Z,13.88
2022-10-14T19:49:05.245Z,12.70
2022-10-14T19:51:35.230Z,16.52
2022-10-14T19:54:02.578Z,13.85
2022-10-14T19:56:30.239Z,14.07
2022-10-14T19:58:58.393Z,18.98
2022-10-14T20:01:29.288Z,14.93
2022-10-14T20:03:56.819Z,16.38
2022-10-14T20:06:24.210Z,14.25
2022-10-14T20:08:51.373Z,14.65
2022-10-14T20:11:20.001Z,11.48
2022-10-14T20:13:46.877Z,17.15
2022-10-14T20:16:13.949Z,16.58
2022-10-14T20:18:40.829Z,9.70
2022-10-14T20:21:10.155Z,11.90
2022-10-14T20:23:40.640Z,9.82
2022-10-14T20:26:13.877Z,11.38
2022-10-14T20:28:40.707Z,11.93
2022-10-14T20:31:15.563Z,11.77
2022-10-14T20:33:42.722Z,11.13
2022-10-14T20:36:14.781Z,13.13
2022-10-14T20:38:42.229Z,12.20
2022-10-14T20:41:12.517Z,12.00
2022-10-14T20:43:40.373Z,12.55
2022-10-14T20:46:07.070Z,10.55
2022-10-14T20:48:34.857Z,14.93
2022-10-14T20:51:08.144Z,15.48
2022-10-14T20:53:34.976Z,14.35
2022-10-14T20:56:09.541Z,19.08
2022-10-14T20:58:40.118Z,18.20
2022-10-14T21:01:20.655Z,13.52
2022-10-14T21:03:47.949Z,14.57
2022-10-14T21:06:19.173Z,15.50
2022-10-14T21:08:46.640Z,19.45
2022-10-14T21:11:15.972Z,17.98
2022-10-14T21:13:51.265Z,16.90
2022-10-14T21:16:20.759Z,16.92
2022-10-14T21:18:53.703Z,24.95
2022-10-14T21:21:27.022Z,18.85
2022-10-14T21:23:54.840Z,19.50
2022-10-14T21:26:24.638Z,16.88
2022-10-14T21:29:03.280Z,28.15
2022-10-14T21:31:39.606Z,18.58
2022-10-14T21:34:06.770Z,27.73
2022-10-14T21:36:35.390Z,18.60
2022-10-14T21:39:09.807Z,18.45
2022-10-14T21:41:37.576Z,19.40
2022-10-14T21:44:05.780Z,21.85
2022-10-14T21:46:33.248Z,21.48
2022-10-14T21:49:00.292Z,23.80
2022-10-14T21:51:29.737Z,27.40
2022-10-14T21:53:57.391Z,27.35
2022-10-14T21:56:25.258Z,24.25
2022-10-14T21:58:51.954Z,21.85
2022-10-14T22:01:27.940Z,27.38
2022-10-14T22:03:56.990Z,33.05
2022-10-14T22:06:24.469Z,25.02
2022-10-14T22:08:53.800Z,30.10
2022-10-14T22:11:29.448Z,29.75
2022-10-14T22:13:57.630Z,32.10
2022-10-14T22:16:24.702Z,28.25
2022-10-14T22:18:53.620Z,26.58
2022-10-14T22:21:23.452Z,28.60
2022-10-14T22:23:50.649Z,27.55
2022-10-14T22:26:20.230Z,28.63
2022-10-14T22:28:47.866Z,23.20
2022-10-14T22:31:17.623Z,31.02
2022-10-14T22:33:44.836Z,30.00
2022-10-14T22:36:28.769Z,25.15
2022-10-14T22:38:56.723Z,37.35
2022-10-14T22:41:24.186Z,37.78
2022-10-14T22:43:56.836Z,27.55
2022-10-14T22:46:26.085Z,32.47
2022-10-14T22:48:56.304Z,29.23
2022-10-14T22:51:28.431Z,32.00
2022-10-14T22:53:55.137Z,32.92
2022-10-14T22:56:24.123Z,29.98
2022-10-14T22:58:54.462Z,35.20
2022-10-14T23:01:22.357Z,30.30
2022-10-14T23:03:49.573Z,40.60
2022-10-14T23:06:16.648Z,33.03
2022-10-14T23:08:43.683Z,32.33
2022-10-14T23:11:14.171Z,34.03
2022-10-14T23:13:40.907Z,33.30
2022-10-14T23:16:10.764Z,29.70
2022-10-14T23:18:39.200Z,31.75
2022-10-14T23:21:13.002Z,33.95
2022-10-14T23:23:40.300Z,29.67
2022-10-14T23:26:09.679Z,30.58
2022-10-14T23:28:36.937Z,35.10
2022-10-14T23:31:12.990Z,29.75
2022-10-14T23:33:40.163Z,38.78
2022-10-14T23:36:09.277Z,35.80
2022-10-14T23:38:36.822Z,33.35
2022-10-14T23:41:04.505Z,31.38
2022-10-14T23:43:31.213Z,37.30
2022-10-14T23:45:58.450Z,32.03
2022-10-14T23:48:25.837Z,34.10
2022-10-14T23:50:52.614Z,35.67
2022-10-14T23:53:19.775Z,36.15
2022-10-14T23:55:46.693Z,35.45
2022-10-14T23:58:13.408Z,32.45
